Aérodrome :
LOGIN :

S'inscrire | Disclaimer

   EN    FR    IT 

 










Légende :    VFR   VFR Marginal   IFR   IFR Intensif   IFR Très Intensif
Visi : 
Plafond : 
>= 8 km
>= 3000ft
5 à 8 km
1000 à 3000 ft
1500m à 5 km
500 à 1000 ft
800 à 1500m
200 à 500 ft
< 800m
< 200 ft
Symboles :   Orages  Brouillard  Fortes neiges  Fortes précipitations  Vent > 20 kt
SIGMETs :   Divers  Orages  Givrage  Turbulence  Onde Orograph.  Cendres Volcan.







- Altitude de l'aérodrome : 102 ft
- Code IATA : EXT
- Voir les cartes d'approche


EGTE - Exeter

DERNIER METAR :
  • 252350Z 33003KT 9999 NSC 15/14 Q1019

METARs EXPIRÉS :
  • 252320Z 32003KT CAVOK 15/15 Q1019
  • 252250Z 29004KT 260V320 CAVOK 15/15 Q1019
  • 252220Z 28004KT CAVOK 16/16 Q1019
  • 252150Z 30005KT CAVOK 17/16 Q1019
  • 252120Z 27005KT CAVOK 17/16 Q1019

TAF TAF EGTE
Valide du 26 à 00h jusqu'au 26 à 03h UTC


252258Z 2600/2603 30005KT 9999 FEW045
TEMPO 2600/2603 9000
PROB40
TEMPO 2600/2603 3000 BR BKN004
Pas de NOTAMs connus pour ce terrain.



MET'MAP, la Météo Aéronautique d'un coup d'oeil ! - Copyright ORBIFLY Décembre 2007 - Disclaimer

ORBIFLY MET'MAP TEAM :

Programmation & Développement : Alexandra Zaïnal
Conception & Développement : Baudouin d'Aumeries
Co-Programmation & Développement : Marc-Olivier Méhu
Soutien technique & logistique : Manuel Goepfert

Contact : metmap@orbifly.com




SOURCES & CREDITS :

   NOAA